createdAt,value
2022-11-07T00:04:15.619Z,18
2022-11-07T00:34:17.217Z,19
2022-11-07T01:04:19.514Z,17
2022-11-07T01:34:19.028Z,17
2022-11-07T02:04:23.857Z,18
2022-11-07T03:04:26.504Z,17
2022-11-07T03:34:33.074Z,18
2022-11-07T04:04:34.945Z,17
2022-11-07T04:34:39.101Z,16
2022-11-07T05:04:43.890Z,18
2022-11-07T05:34:46.935Z,18
2022-11-07T06:04:46.130Z,19
2022-11-07T06:34:52.088Z,17
2022-11-07T07:04:53.367Z,16
2022-11-07T07:34:59.852Z,15
2022-11-07T08:05:08.212Z,14
2022-11-07T08:35:21.298Z,14
2022-11-07T09:05:21.892Z,14
2022-11-07T09:35:21.793Z,16
2022-11-07T10:05:30.718Z,14
2022-11-07T10:35:32.037Z,15
2022-11-07T11:05:46.519Z,14
2022-11-07T11:35:46.264Z,12
2022-11-07T12:05:52.393Z,14
2022-11-07T12:35:48.976Z,14
2022-11-07T13:06:01.365Z,13
2022-11-07T13:36:00.915Z,12
2022-11-07T14:05:59.837Z,12
2022-11-07T14:36:00.432Z,15
2022-11-07T15:06:01.395Z,15
2022-11-07T15:36:01.697Z,17
2022-11-07T16:06:01.263Z,16
2022-11-07T16:36:01.558Z,16
2022-11-07T17:05:59.914Z,21
2022-11-07T18:05:58.286Z,20
2022-11-07T18:35:55.830Z,19
2022-11-07T19:05:57.663Z,21
2022-11-07T19:35:59.763Z,21
2022-11-07T20:05:59.958Z,23
2022-11-07T20:36:00.137Z,23
2022-11-07T21:06:01.625Z,23
2022-11-07T21:36:03.003Z,20
2022-11-07T22:06:05.480Z,18
2022-11-07T22:36:09.377Z,18
2022-11-07T23:06:12.077Z,17
2022-11-07T23:36:13.720Z,15
